Time;durP1;ratioP1;P1;durP2;ratioP2;P2;SDS_P1;SDS_P2;PMS_P1;PMS_P2;Temp;Humidity;BMP_temperature;BMP_pressure;BME280_temperature;BME280_humidity;BME280_pressure;Samples;Min_cycle;Max_cycle;Signal;HPM_P1;HPM_P2
2023/06/12 00:01:06;;;;;;;9.27;2.33;;;30.50;37.00;;;;;;5081238;28;20080;-62
2023/06/12 00:03:33;;;;;;;13.75;2.22;;;30.60;37.10;;;;;;5080986;28;20521;-61
2023/06/12 00:06:00;;;;;;;11.07;2.45;;;30.30;37.70;;;;;;5085631;28;20156;-62
2023/06/12 00:08:35;;;;;;;14.10;3.70;;;30.20;38.30;;;;;;5081049;28;20554;-62
2023/06/12 00:11:07;;;;;;;16.77;2.35;;;30.20;38.60;;;;;;5083031;28;20083;-64
2023/06/12 00:13:34;;;;;;;24.50;3.08;;;30.30;37.90;;;;;;5082794;28;20072;-62
2023/06/12 00:16:00;;;;;;;22.80;3.38;;;30.00;38.30;;;;;;5085911;28;20080;-64
2023/06/12 00:18:26;;;;;;;39.17;3.50;;;30.00;38.70;;;;;;5076709;28;20064;-63
2023/06/12 00:20:53;;;;;;;40.13;3.28;;;29.80;38.60;;;;;;5082030;28;20082;-62
2023/06/12 00:23:19;;;;;;;30.13;3.33;;;29.60;39.10;;;;;;5072093;28;20071;-66
2023/06/12 00:25:46;;;;;;;43.05;3.55;;;29.70;39.50;;;;;;5081882;28;20074;-63
2023/06/12 00:28:12;;;;;;;25.45;3.38;;;29.70;39.50;;;;;;5082504;28;20067;-63
2023/06/12 00:30:39;;;;;;;34.65;3.92;;;29.60;39.50;;;;;;5078482;28;20075;-65
2023/06/12 00:33:05;;;;;;;59.42;4.10;;;29.40;40.30;;;;;;5085498;28;20089;-64
2023/06/12 00:35:31;;;;;;;64.45;5.28;;;29.10;40.30;;;;;;5080660;28;20108;-64
2023/06/12 00:37:58;;;;;;;53.40;4.75;;;28.90;40.80;;;;;;5082904;28;20095;-63
2023/06/12 00:40:24;;;;;;;68.15;5.93;;;29.00;41.10;;;;;;5079531;28;20111;-65
2023/06/12 00:42:51;;;;;;;87.75;7.30;;;28.80;41.70;;;;;;5078595;28;20068;-65
2023/06/12 00:45:21;;;;;;;95.50;8.05;;;28.80;41.70;;;;;;5077858;28;20429;-63
2023/06/12 00:47:52;;;;;;;97.70;7.07;;;28.80;41.40;;;;;;5082217;28;20074;-61
2023/06/12 00:50:25;;;;;;;124.20;10.20;;;28.50;41.60;;;;;;5076545;28;20062;-64
2023/06/12 00:52:52;;;;;;;148.93;10.30;;;28.50;41.70;;;;;;5081968;28;20167;-61
2023/06/12 00:55:19;;;;;;;88.20;9.85;;;28.20;41.90;;;;;;5078330;28;20477;-65
2023/06/12 00:57:47;;;;;;;104.47;8.98;;;28.00;42.40;;;;;;5082062;28;20091;-66
2023/06/12 01:00:17;;;;;;;99.93;9.07;;;28.10;42.90;;;;;;5076953;28;20119;-63
2023/06/12 01:02:51;;;;;;;93.20;8.82;;;27.90;43.50;;;;;;5084091;28;20446;-63
2023/06/12 01:05:34;;;;;;;107.80;9.13;;;27.80;43.60;;;;;;5078041;28;20515;-62
2023/06/12 01:08:03;;;;;;;118.68;9.43;;;27.90;43.90;;;;;;5083607;28;20563;-60
2023/06/12 01:10:34;;;;;;;88.47;8.18;;;28.00;43.90;;;;;;5081758;28;20079;-63
2023/06/12 01:13:01;;;;;;;82.80;5.68;;;27.80;44.40;;;;;;5078015;28;20072;-63
2023/06/12 01:15:27;;;;;;;76.85;6.20;;;27.80;43.40;;;;;;5081291;28;20109;-63
2023/06/12 01:17:54;;;;;;;48.92;5.22;;;27.60;43.60;;;;;;5077797;28;20177;-62
2023/06/12 01:20:21;;;;;;;64.97;5.78;;;27.50;43.40;;;;;;5075278;28;20604;-61
2023/06/12 01:23:11;;;;;;;60.03;4.63;;;27.50;43.70;;;;;;5080409;28;20416;-62
2023/06/12 01:25:56;;;;;;;49.40;4.88;;;27.40;43.80;;;;;;5078128;28;20069;-63
2023/06/12 01:28:37;;;;;;;68.07;5.75;;;27.30;44.40;;;;;;5078681;28;20234;-61
2023/06/12 01:31:38;;;;;;;65.00;5.97;;;27.20;44.40;;;;;;5081108;28;20143;-64
2023/06/12 01:34:16;;;;;;;69.28;5.30;;;27.20;44.50;;;;;;5079108;28;20544;-64
2023/06/12 01:37:05;;;;;;;57.30;4.50;;;27.20;45.40;;;;;;5082382;28;20625;-64
2023/06/12 01:39:40;;;;;;;53.67;5.55;;;27.00;45.70;;;;;;5077314;28;20183;-61
2023/06/12 01:42:08;;;;;;;71.57;5.70;;;26.90;45.70;;;;;;5079663;28;20063;-64
2023/06/12 01:44:34;;;;;;;46.13;3.97;;;26.90;45.70;;;;;;5084395;28;20074;-62
2023/06/12 01:47:01;;;;;;;35.00;3.80;;;26.80;45.40;;;;;;5078204;28;20119;-63
2023/06/12 01:49:27;;;;;;;42.08;4.85;;;26.70;45.80;;;;;;5080733;28;20075;-66
2023/06/12 01:51:53;;;;;;;39.20;5.25;;;26.60;46.20;;;;;;5080971;28;20527;-61
2023/06/12 01:54:22;;;;;;;38.05;3.97;;;26.60;46.40;;;;;;5080579;28;20146;-60
2023/06/12 01:56:49;;;;;;;43.17;4.10;;;26.50;46.50;;;;;;5078674;28;20633;-63
2023/06/12 01:59:17;;;;;;;45.70;4.05;;;26.40;47.10;;;;;;5079185;28;20111;-60
2023/06/12 02:01:44;;;;;;;50.78;3.80;;;26.20;47.40;;;;;;5082992;28;20081;-66
2023/06/12 02:04:12;;;;;;;43.17;3.92;;;26.10;47.40;;;;;;5074154;28;20072;-67
2023/06/12 02:06:38;;;;;;;27.27;2.97;;;26.10;47.70;;;;;;5077613;28;20067;-63
2023/06/12 02:09:04;;;;;;;32.28;2.97;;;26.00;47.90;;;;;;5073809;28;20122;-61
2023/06/12 02:11:31;;;;;;;30.52;3.10;;;26.00;48.10;;;;;;5075253;28;20120;-63
2023/06/12 02:13:58;;;;;;;32.15;3.95;;;26.00;48.40;;;;;;5081424;28;20153;-64
2023/06/12 02:16:24;;;;;;;27.50;2.53;;;26.00;48.70;;;;;;5078059;28;20071;-64
2023/06/12 02:18:51;;;;;;;41.05;3.63;;;25.90;48.90;;;;;;5078428;28;20106;-64
2023/06/12 02:21:17;;;;;;;30.67;2.85;;;25.90;49.00;;;;;;5076133;28;20094;-64
2023/06/12 02:23:43;;;;;;;35.55;3.90;;;25.80;49.10;;;;;;5076191;28;20068;-65
2023/06/12 02:26:10;;;;;;;29.70;3.35;;;25.60;49.50;;;;;;5080650;28;20628;-63
2023/06/12 02:28:41;;;;;;;46.28;3.47;;;25.50;50.00;;;;;;5084321;28;20084;-64
2023/06/12 02:31:07;;;;;;;54.22;5.35;;;25.50;50.20;;;;;;5077870;28;21732;-63
2023/06/12 02:33:34;;;;;;;50.55;4.75;;;25.40;50.50;;;;;;5079646;28;20079;-62
2023/06/12 02:36:01;;;;;;;68.80;4.95;;;25.40;50.80;;;;;;5081476;28;20075;-64
2023/06/12 02:38:27;;;;;;;52.90;4.82;;;25.30;51.20;;;;;;5078410;28;20084;-65
2023/06/12 02:40:54;;;;;;;63.95;4.30;;;25.30;51.90;;;;;;5080233;28;20744;-61
2023/06/12 02:43:20;;;;;;;39.53;4.13;;;25.20;52.00;;;;;;5080822;28;20067;-64
2023/06/12 02:45:47;;;;;;;37.05;3.60;;;25.20;52.40;;;;;;5077562;28;20432;-64
2023/06/12 02:48:13;;;;;;;43.03;5.00;;;25.00;52.70;;;;;;5077388;28;20081;-62
2023/06/12 02:50:40;;;;;;;27.65;4.03;;;24.90;53.10;;;;;;5080957;28;20102;-64
2023/06/12 02:53:06;;;;;;;34.75;4.50;;;24.90;53.40;;;;;;5075061;28;20080;-66
2023/06/12 02:55:39;;;;;;;26.00;3.65;;;24.80;53.40;;;;;;5079808;28;20440;-65
2023/06/12 02:58:07;;;;;;;22.42;2.92;;;24.70;53.50;;;;;;5077430;28;20097;-66
2023/06/12 03:00:33;;;;;;;22.80;2.28;;;24.70;53.50;;;;;;5079389;28;20127;-65
2023/06/12 03:03:00;;;;;;;30.50;2.75;;;24.70;53.80;;;;;;5078590;28;20066;-62
2023/06/12 03:05:27;;;;;;;20.52;2.50;;;24.60;54.10;;;;;;5074716;28;20075;-63
2023/06/12 03:07:53;;;;;;;25.60;3.35;;;24.70;54.20;;;;;;5077402;28;20072;-63
2023/06/12 03:10:19;;;;;;;26.45;3.22;;;24.60;54.00;;;;;;5076346;28;20099;-62
2023/06/12 03:12:46;;;;;;;25.42;3.17;;;24.50;54.20;;;;;;5079759;28;20076;-64
2023/06/12 03:15:16;;;;;;;24.15;3.80;;;24.40;54.30;;;;;;5081625;28;20072;-64
2023/06/12 03:17:43;;;;;;;34.55;4.20;;;24.40;54.30;;;;;;5075598;28;20554;-63
2023/06/12 03:20:10;;;;;;;33.85;3.30;;;24.30;54.50;;;;;;5083185;28;20090;-65
2023/06/12 03:22:37;;;;;;;27.35;2.70;;;24.30;54.30;;;;;;5075829;28;20068;-64
2023/06/12 03:25:03;;;;;;;24.80;3.03;;;24.30;54.10;;;;;;5074307;28;20091;-63
2023/06/12 03:27:31;;;;;;;21.17;2.83;;;24.20;54.00;;;;;;5080416;28;20076;-65
2023/06/12 03:29:57;;;;;;;15.27;2.80;;;24.30;53.90;;;;;;5086735;28;20120;-65
2023/06/12 03:32:24;;;;;;;12.93;2.20;;;24.30;53.90;;;;;;5082013;28;20095;-65
2023/06/12 03:34:51;;;;;;;21.00;2.47;;;24.30;54.00;;;;;;5080835;28;20106;-63
2023/06/12 03:37:19;;;;;;;25.05;2.70;;;24.20;53.70;;;;;;5078701;28;20103;-63
2023/06/12 03:39:45;;;;;;;18.45;2.50;;;24.20;53.70;;;;;;5088282;28;20162;-66
2023/06/12 03:42:12;;;;;;;23.58;2.53;;;24.30;53.40;;;;;;5083440;28;20075;-66
2023/06/12 03:44:38;;;;;;;14.77;3.00;;;24.20;53.20;;;;;;5083018;28;20075;-63
2023/06/12 03:47:04;;;;;;;10.93;2.15;;;24.20;53.30;;;;;;5079768;28;20084;-64
2023/06/12 03:49:31;;;;;;;17.77;3.00;;;24.20;53.40;;;;;;5081084;28;20433;-65
2023/06/12 03:51:57;;;;;;;20.83;2.67;;;24.20;53.20;;;;;;5080502;28;20541;-63
2023/06/12 03:54:24;;;;;;;10.63;2.47;;;24.10;53.30;;;;;;5080430;28;20075;-64
2023/06/12 03:56:50;;;;;;;14.18;2.25;;;24.10;53.10;;;;;;5080524;28;20175;-65
2023/06/12 03:59:18;;;;;;;19.80;3.70;;;24.10;53.30;;;;;;5080208;28;20107;-64
2023/06/12 04:01:45;;;;;;;13.35;2.58;;;24.00;53.30;;;;;;5084763;28;20082;-63
2023/06/12 04:04:11;;;;;;;15.63;2.90;;;23.90;53.40;;;;;;5076322;28;20503;-63
2023/06/12 04:06:40;;;;;;;13.80;3.00;;;23.90;53.40;;;;;;5080670;28;20090;-62
2023/06/12 04:09:08;;;;;;;14.35;3.08;;;23.90;53.60;;;;;;5079280;28;20151;-62
2023/06/12 04:11:35;;;;;;;13.13;2.40;;;23.80;53.70;;;;;;5080561;28;20060;-64
2023/06/12 04:14:02;;;;;;;11.77;2.45;;;23.80;54.10;;;;;;5082776;28;20068;-62
2023/06/12 04:16:29;;;;;;;11.10;2.30;;;23.70;54.40;;;;;;5083479;28;20122;-63
2023/06/12 04:18:56;;;;;;;8.63;2.60;;;23.60;54.60;;;;;;5084154;28;20719;-64
2023/06/12 04:21:22;;;;;;;9.15;2.22;;;23.50;54.80;;;;;;5078250;28;20456;-63
2023/06/12 04:23:49;;;;;;;9.15;2.08;;;23.60;55.00;;;;;;5081507;28;20563;-62
2023/06/12 04:26:15;;;;;;;7.45;2.33;;;23.60;54.90;;;;;;5081117;28;20079;-62
2023/06/12 04:28:42;;;;;;;11.25;2.25;;;23.50;55.20;;;;;;5075332;28;20134;-63
2023/06/12 04:31:08;;;;;;;12.77;2.40;;;23.50;55.20;;;;;;5079365;28;20082;-63
2023/06/12 04:33:35;;;;;;;7.50;3.25;;;23.40;55.20;;;;;;5081172;28;20068;-62
2023/06/12 04:36:03;;;;;;;10.88;2.92;;;23.40;55.40;;;;;;5076652;28;20072;-63
2023/06/12 04:38:36;;;;;;;3.60;2.53;;;23.40;55.50;;;;;;5077568;28;20103;-64
2023/06/12 04:41:03;;;;;;;5.78;1.80;;;23.30;55.80;;;;;;5079317;28;20076;-65
2023/06/12 04:43:29;;;;;;;4.95;2.17;;;23.20;56.50;;;;;;5078120;28;20068;-62
2023/06/12 04:45:56;;;;;;;4.85;1.58;;;23.20;56.20;;;;;;5083805;28;20145;-62
2023/06/12 04:48:22;;;;;;;4.95;1.45;;;23.30;56.10;;;;;;5077803;28;20102;-65
2023/06/12 04:50:50;;;;;;;8.07;1.63;;;23.20;56.20;;;;;;5082248;28;20095;-67
2023/06/12 04:53:30;;;;;;;5.25;1.58;;;23.10;56.40;;;;;;5082383;28;20466;-66
2023/06/12 04:56:00;;;;;;;6.43;1.40;;;23.20;56.60;;;;;;5079146;28;20413;-67
2023/06/12 04:58:27;;;;;;;7.82;1.58;;;23.10;56.60;;;;;;5077744;28;20068;-65
2023/06/12 05:00:55;;;;;;;6.65;2.03;;;23.00;56.90;;;;;;5080134;28;20116;-65
2023/06/12 05:03:22;;;;;;;7.13;1.60;;;23.00;57.10;;;;;;5085180;28;20063;-64
2023/06/12 05:05:48;;;;;;;5.38;1.40;;;23.00;57.20;;;;;;5077568;28;20099;-65
2023/06/12 05:08:15;;;;;;;2.38;1.50;;;22.90;57.40;;;;;;5084689;28;20080;-64
2023/06/12 05:10:42;;;;;;;6.70;1.75;;;22.80;57.70;;;;;;5078903;28;20067;-64
2023/06/12 05:13:08;;;;;;;5.35;2.20;;;22.80;57.80;;;;;;5078065;28;20079;-64
2023/06/12 05:15:35;;;;;;;4.13;1.77;;;22.80;57.70;;;;;;5078322;28;20162;-64
2023/06/12 05:18:01;;;;;;;3.58;1.55;;;22.90;57.90;;;;;;5082061;28;20082;-66
2023/06/12 05:20:28;;;;;;;3.83;1.63;;;22.80;57.80;;;;;;5079302;28;20087;-67
2023/06/12 05:22:54;;;;;;;9.85;1.77;;;22.80;58.10;;;;;;5077782;28;20090;-67
2023/06/12 05:25:21;;;;;;;5.13;1.63;;;22.70;58.20;;;;;;5077936;28;20079;-65
2023/06/12 05:27:47;;;;;;;3.95;1.55;;;22.80;58.60;;;;;;5078865;28;20115;-63
2023/06/12 05:30:15;;;;;;;5.35;1.98;;;22.70;58.50;;;;;;5078076;28;20447;-64
2023/06/12 05:32:41;;;;;;;3.67;1.40;;;22.60;58.60;;;;;;5072327;28;20070;-63
2023/06/12 05:35:08;;;;;;;3.55;1.60;;;22.70;58.80;;;;;;5076674;28;20545;-64
2023/06/12 05:37:35;;;;;;;2.67;1.60;;;22.70;59.00;;;;;;5080680;28;20075;-65
2023/06/12 05:40:05;;;;;;;3.50;1.40;;;22.60;59.30;;;;;;5073289;28;20083;-67
2023/06/12 05:42:31;;;;;;;4.75;1.48;;;22.60;59.60;;;;;;5072539;28;20820;-62
2023/06/12 05:44:58;;;;;;;5.32;2.90;;;22.50;59.80;;;;;;5076946;28;20155;-65
2023/06/12 05:47:25;;;;;;;6.72;3.65;;;22.40;60.20;;;;;;5074715;28;20075;-64
2023/06/12 05:49:52;;;;;;;4.13;1.30;;;22.50;60.40;;;;;;5072690;28;20064;-61
2023/06/12 05:52:18;;;;;;;3.38;1.20;;;22.40;60.30;;;;;;5076802;28;20144;-64
2023/06/12 05:54:45;;;;;;;1.92;1.25;;;22.40;60.90;;;;;;5084112;28;20075;-65
2023/06/12 05:57:13;;;;;;;3.42;1.27;;;22.30;61.40;;;;;;5081154;28;21303;-65
2023/06/12 05:59:39;;;;;;;4.90;1.33;;;22.30;61.60;;;;;;5078049;28;20124;-68
2023/06/12 06:02:07;;;;;;;4.40;1.50;;;22.20;61.50;;;;;;5080765;28;20605;-67
2023/06/12 06:04:34;;;;;;;6.40;1.60;;;22.20;61.50;;;;;;5081201;28;20068;-63
2023/06/12 06:07:00;;;;;;;6.60;1.60;;;22.20;61.70;;;;;;5080236;28;20068;-65
2023/06/12 06:09:27;;;;;;;3.00;1.40;;;22.20;61.70;;;;;;5081629;28;20072;-67
2023/06/12 06:11:53;;;;;;;2.67;1.20;;;22.20;61.80;;;;;;5075403;28;20087;-62
2023/06/12 06:14:20;;;;;;;5.10;1.70;;;22.20;61.80;;;;;;5078682;28;20102;-62
2023/06/12 06:16:46;;;;;;;3.92;1.65;;;22.20;61.60;;;;;;5076887;28;20088;-63
2023/06/12 06:19:12;;;;;;;2.97;1.63;;;22.10;61.10;;;;;;5079439;28;20071;-62
2023/06/12 06:21:39;;;;;;;4.47;1.40;;;22.10;61.20;;;;;;5076637;28;20159;-65
2023/06/12 06:24:07;;;;;;;5.85;1.20;;;22.10;61.20;;;;;;5077072;28;20485;-63
2023/06/12 06:26:33;;;;;;;7.45;2.30;;;22.10;61.10;;;;;;5078357;28;20075;-64
2023/06/12 06:28:59;;;;;;;6.32;1.52;;;22.20;61.00;;;;;;5080318;28;20074;-64
2023/06/12 06:31:27;;;;;;;4.10;1.50;;;22.20;61.20;;;;;;5077325;28;20182;-63
2023/06/12 06:33:53;;;;;;;1.67;1.33;;;22.10;61.70;;;;;;5081286;28;20162;-62
2023/06/12 06:36:19;;;;;;;3.47;1.50;;;22.10;61.80;;;;;;5077023;28;20071;-63
2023/06/12 06:38:46;;;;;;;3.08;1.35;;;22.10;61.90;;;;;;5082275;28;20094;-66
2023/06/12 06:41:12;;;;;;;3.75;1.50;;;22.00;61.90;;;;;;5078679;28;20096;-64
2023/06/12 06:43:39;;;;;;;9.27;1.92;;;22.00;61.70;;;;;;5080328;28;20072;-64
2023/06/12 06:46:05;;;;;;;7.60;1.40;;;22.00;62.10;;;;;;5084360;28;20068;-62
2023/06/12 06:48:32;;;;;;;5.68;1.63;;;21.90;62.00;;;;;;5083795;28;20060;-65
2023/06/12 06:50:58;;;;;;;1.65;1.35;;;21.90;62.10;;;;;;5082493;28;20076;-64
2023/06/12 06:53:25;;;;;;;3.25;1.33;;;22.00;61.80;;;;;;5083427;28;20072;-65
2023/06/12 06:55:51;;;;;;;3.17;1.30;;;22.00;62.00;;;;;;5080212;28;21433;-62
2023/06/12 06:58:18;;;;;;;5.53;1.40;;;22.00;61.80;;;;;;5081646;28;20095;-64
2023/06/12 07:00:45;;;;;;;4.00;1.30;;;21.90;62.00;;;;;;5084631;28;20103;-64
2023/06/12 07:03:12;;;;;;;5.38;1.40;;;21.90;62.20;;;;;;5081993;28;20080;-64
2023/06/12 07:05:38;;;;;;;2.50;1.75;;;21.90;62.20;;;;;;5084494;28;20119;-63
2023/06/12 07:08:05;;;;;;;5.15;1.58;;;21.90;62.60;;;;;;5084323;28;20064;-62
2023/06/12 07:10:31;;;;;;;3.33;1.30;;;21.90;62.50;;;;;;5083887;28;20171;-62
2023/06/12 07:12:58;;;;;;;2.78;1.58;;;21.90;62.40;;;;;;5080624;28;20076;-63
2023/06/12 07:15:27;;;;;;;4.05;1.40;;;21.90;62.30;;;;;;5083696;28;20966;-63
2023/06/12 07:17:54;;;;;;;4.25;1.30;;;22.00;62.50;;;;;;5083015;28;20623;-63
2023/06/12 07:20:20;;;;;;;3.38;1.80;;;21.90;62.40;;;;;;5081222;28;20441;-64
2023/06/12 07:22:47;;;;;;;6.00;1.33;;;21.90;62.40;;;;;;5082222;28;20129;-62
2023/06/12 07:25:14;;;;;;;2.88;1.42;;;21.90;62.60;;;;;;5085273;28;20484;-62
2023/06/12 07:27:40;;;;;;;2.67;1.17;;;21.80;62.70;;;;;;5081717;28;20063;-63
2023/06/12 07:30:07;;;;;;;2.60;1.20;;;21.80;63.00;;;;;;5082793;28;20470;-61
2023/06/12 07:32:33;;;;;;;3.72;1.50;;;21.80;62.90;;;;;;5084465;28;20158;-63
2023/06/12 07:35:00;;;;;;;4.82;1.40;;;21.80;63.00;;;;;;5083964;28;20087;-62
2023/06/12 07:37:27;;;;;;;5.10;1.30;;;21.80;63.40;;;;;;5081414;28;20118;-64
2023/06/12 07:39:53;;;;;;;4.75;1.38;;;21.80;63.10;;;;;;5081914;28;20728;-64
2023/06/12 07:42:20;;;;;;;1.67;1.23;;;21.80;63.30;;;;;;5083467;28;20064;-63
2023/06/12 07:44:46;;;;;;;3.35;1.02;;;21.80;63.10;;;;;;5083942;28;20508;-62
2023/06/12 07:47:13;;;;;;;7.75;1.67;;;21.70;63.10;;;;;;5082361;28;20520;-63
2023/06/12 07:49:39;;;;;;;2.55;1.35;;;21.80;63.30;;;;;;5082813;28;20163;-62
2023/06/12 07:52:06;;;;;;;1.73;1.08;;;21.80;63.20;;;;;;5080352;28;20170;-64
2023/06/12 07:54:32;;;;;;;1.30;1.17;;;21.80;63.20;;;;;;5082634;28;20753;-63
2023/06/12 07:56:58;;;;;;;3.63;1.20;;;21.80;63.10;;;;;;5076632;28;20090;-65
2023/06/12 07:59:25;;;;;;;4.10;1.20;;;21.80;63.60;;;;;;5079922;28;20115;-63
2023/06/12 08:01:52;;;;;;;1.92;1.25;;;21.70;63.40;;;;;;5081094;28;20125;-66
2023/06/12 08:04:18;;;;;;;1.70;1.17;;;21.80;63.80;;;;;;5080214;28;20122;-64
2023/06/12 08:06:47;;;;;;;1.80;1.27;;;21.70;63.90;;;;;;5078423;28;20064;-63
2023/06/12 08:09:14;;;;;;;6.68;1.30;;;21.70;64.20;;;;;;5085133;28;20900;-63
2023/06/12 08:11:41;;;;;;;1.75;1.27;;;21.70;64.80;;;;;;5081248;28;20060;-63
2023/06/12 08:14:08;;;;;;;2.15;1.20;;;21.60;65.30;;;;;;5078838;28;20205;-65
2023/06/12 08:16:34;;;;;;;2.75;1.30;;;21.60;65.10;;;;;;5079227;28;20116;-61
2023/06/12 08:19:01;;;;;;;2.80;1.10;;;21.60;65.00;;;;;;5084347;28;20087;-63
2023/06/12 08:21:27;;;;;;;2.72;1.20;;;21.60;65.00;;;;;;5081173;28;20104;-63
2023/06/12 08:23:53;;;;;;;3.03;1.23;;;21.60;65.20;;;;;;5083903;28;20518;-61
2023/06/12 08:26:20;;;;;;;16.10;8.30;;;21.50;65.10;;;;;;5077822;28;20509;-63
2023/06/12 08:28:50;;;;;;;17.27;8.55;;;21.50;65.40;;;;;;5077084;28;20477;-65
2023/06/12 08:31:16;;;;;;;16.58;9.05;;;21.50;65.20;;;;;;5076885;28;20150;-62
2023/06/12 08:33:43;;;;;;;1.50;1.40;;;21.50;65.10;;;;;;5083542;28;20137;-62
2023/06/12 08:36:10;;;;;;;1.50;1.23;;;21.50;65.20;;;;;;5083227;28;20080;-63
2023/06/12 08:38:37;;;;;;;2.25;1.20;;;21.50;65.20;;;;;;5081253;28;20092;-64
2023/06/12 08:41:05;;;;;;;2.30;1.08;;;21.50;64.80;;;;;;5080571;28;20139;-64
2023/06/12 08:43:32;;;;;;;3.92;1.15;;;21.50;65.00;;;;;;5082680;28;20063;-64
2023/06/12 08:46:06;;;;;;;4.93;1.60;;;21.50;64.70;;;;;;5081372;28;20539;-62
2023/06/12 08:48:33;;;;;;;4.40;1.15;;;21.50;65.10;;;;;;5079124;28;20599;-63
2023/06/12 08:51:02;;;;;;;2.67;1.13;;;21.50;65.10;;;;;;5081045;28;20077;-63
2023/06/12 08:53:29;;;;;;;1.35;1.08;;;21.40;64.60;;;;;;5077939;28;20099;-62
2023/06/12 08:55:56;;;;;;;4.60;1.60;;;21.50;65.10;;;;;;5080984;28;20088;-63
2023/06/12 08:58:22;;;;;;;1.52;1.00;;;21.40;65.00;;;;;;5080426;28;20630;-64
2023/06/12 09:00:49;;;;;;;2.20;0.90;;;21.40;65.30;;;;;;5082268;28;20164;-63
2023/06/12 09:03:15;;;;;;;1.55;1.27;;;21.40;65.10;;;;;;5076799;28;20076;-63
2023/06/12 09:05:42;;;;;;;3.33;1.20;;;21.40;65.00;;;;;;5079685;28;20099;-64
2023/06/12 09:08:09;;;;;;;2.55;1.40;;;21.40;64.90;;;;;;5081459;28;20067;-64
2023/06/12 09:10:38;;;;;;;1.50;1.40;;;21.40;65.40;;;;;;5080628;28;20075;-63
2023/06/12 09:13:12;;;;;;;1.52;1.10;;;21.40;65.60;;;;;;5079648;28;20155;-62
2023/06/12 09:15:48;;;;;;;6.07;1.33;;;21.30;65.40;;;;;;5080397;28;20496;-63
2023/06/12 09:18:15;;;;;;;1.42;1.30;;;21.40;65.80;;;;;;5077964;28;20078;-63
2023/06/12 09:20:41;;;;;;;2.05;1.30;;;21.30;66.00;;;;;;5079177;28;20449;-65
2023/06/12 09:23:08;;;;;;;1.80;1.50;;;21.30;65.70;;;;;;5076398;28;20064;-63
2023/06/12 09:25:39;;;;;;;3.65;1.45;;;21.30;66.10;;;;;;5083771;28;20553;-63
2023/06/12 09:28:08;;;;;;;2.70;1.08;;;21.40;65.60;;;;;;5079102;28;20071;-63
2023/06/12 09:30:42;;;;;;;2.42;1.30;;;21.30;65.60;;;;;;5080237;28;20220;-63
2023/06/12 09:33:09;;;;;;;3.97;1.33;;;21.30;65.40;;;;;;5077548;28;20079;-64
2023/06/12 09:35:51;;;;;;;3.63;1.25;;;21.30;65.50;;;;;;5079501;28;20244;-63
2023/06/12 09:38:18;;;;;;;6.15;1.50;;;21.40;65.40;;;;;;5081083;28;20117;-63
2023/06/12 09:40:53;;;;;;;4.32;1.30;;;21.30;65.30;;;;;;5080025;28;20092;-63
2023/06/12 09:43:20;;;;;;;2.33;1.50;;;21.40;64.90;;;;;;5078229;28;20059;-64
2023/06/12 09:45:50;;;;;;;3.88;1.30;;;21.40;64.00;;;;;;5079665;28;20971;-63
2023/06/12 09:48:16;;;;;;;1.63;1.10;;;21.40;63.70;;;;;;5077039;28;20169;-64
2023/06/12 09:50:43;;;;;;;5.15;1.00;;;21.40;63.40;;;;;;5076194;28;20099;-63
2023/06/12 09:53:12;;;;;;;4.63;1.25;;;21.40;63.20;;;;;;5078718;28;20071;-64
2023/06/12 09:55:40;;;;;;;1.67;1.08;;;21.50;63.10;;;;;;5079826;28;20558;-64
2023/06/12 09:58:08;;;;;;;1.23;1.10;;;21.50;62.80;;;;;;5080720;28;20142;-63
2023/06/12 10:00:36;;;;;;;5.20;1.10;;;21.50;62.70;;;;;;5075892;28;20590;-63
2023/06/12 10:03:10;;;;;;;3.15;1.48;;;21.60;62.60;;;;;;5077499;28;20449;-64
2023/06/12 10:05:43;;;;;;;2.70;1.27;;;21.50;62.50;;;;;;5081496;28;20069;-64
2023/06/12 10:08:10;;;;;;;3.80;1.00;;;21.50;62.80;;;;;;5080504;28;20427;-64
2023/06/12 10:10:37;;;;;;;3.92;1.40;;;21.40;62.80;;;;;;5077295;28;20210;-63
2023/06/12 10:13:05;;;;;;;2.30;1.10;;;21.40;62.90;;;;;;5082235;28;20063;-63
2023/06/12 10:15:32;;;;;;;4.25;1.50;;;21.50;62.90;;;;;;5080146;28;20083;-63
2023/06/12 10:17:59;;;;;;;3.15;1.52;;;21.40;62.70;;;;;;5076738;28;20079;-63
2023/06/12 10:20:26;;;;;;;1.27;1.17;;;21.40;62.60;;;;;;5082623;28;20115;-64
2023/06/12 10:22:57;;;;;;;3.50;1.40;;;21.50;62.80;;;;;;5075233;28;20067;-63
2023/06/12 10:25:24;;;;;;;3.30;1.25;;;21.50;62.40;;;;;;5079241;28;20072;-65
2023/06/12 10:27:53;;;;;;;4.70;1.38;;;21.50;62.50;;;;;;5078796;28;20075;-63
2023/06/12 10:30:20;;;;;;;2.97;1.25;;;21.50;62.60;;;;;;5078472;28;20110;-62
2023/06/12 10:32:46;;;;;;;1.08;0.90;;;21.50;62.40;;;;;;5078395;28;20702;-62
2023/06/12 10:35:27;;;;;;;2.30;1.15;;;21.50;62.60;;;;;;5077089;28;20186;-63
2023/06/12 10:37:55;;;;;;;9.50;1.35;;;21.50;62.50;;;;;;5078635;28;20124;-62
2023/06/12 10:40:22;;;;;;;4.97;1.33;;;21.40;62.20;;;;;;5079746;28;20115;-63
2023/06/12 10:42:55;;;;;;;2.95;1.52;;;21.40;62.40;;;;;;5077335;28;20064;-62
2023/06/12 10:45:32;;;;;;;3.38;1.33;;;21.40;62.70;;;;;;5079312;28;20549;-62
2023/06/12 10:47:58;;;;;;;;;;;21.40;62.50;;;;;;5079043;28;20402;-63
2023/06/12 10:50:26;;;;;;;5.05;1.50;;;21.30;62.40;;;;;;5079036;28;19962;-63
2023/06/12 10:52:57;;;;;;;2.88;1.35;;;21.40;62.70;;;;;;5078284;28;20080;-62
2023/06/12 10:55:27;;;;;;;2.35;1.33;;;21.30;62.90;;;;;;5080734;28;20113;-64
2023/06/12 10:58:00;;;;;;;1.90;1.35;;;21.30;62.90;;;;;;5075672;28;20170;-63
2023/06/12 11:00:38;;;;;;;1.45;0.90;;;21.40;62.80;;;;;;5076940;28;20111;-63
2023/06/12 11:03:10;;;;;;;3.67;1.48;;;21.30;62.60;;;;;;5077066;28;20681;-63
2023/06/12 11:05:36;;;;;;;2.35;1.13;;;21.30;62.80;;;;;;5079863;28;20540;-62
2023/06/12 11:08:05;;;;;;;1.73;1.30;;;21.30;62.70;;;;;;5078476;28;20428;-63
2023/06/12 11:10:33;;;;;;;2.38;1.23;;;21.30;62.70;;;;;;5075983;28;20166;-63
2023/06/12 11:13:00;;;;;;;3.75;1.50;;;21.30;62.50;;;;;;5078047;28;20076;-61
2023/06/12 11:15:27;;;;;;;4.80;1.38;;;21.30;62.90;;;;;;5076893;28;20550;-62
2023/06/12 11:17:53;;;;;;;1.83;1.05;;;21.30;62.70;;;;;;5078945;28;20076;-65
2023/06/12 11:20:22;;;;;;;2.30;1.42;;;21.30;62.80;;;;;;5080230;28;20094;-64
2023/06/12 11:22:57;;;;;;;1.75;1.20;;;21.30;62.80;;;;;;5073175;28;20093;-64
2023/06/12 11:25:25;;;;;;;3.03;1.50;;;21.20;62.80;;;;;;5080360;28;20072;-62
2023/06/12 11:27:54;;;;;;;1.30;1.20;;;21.20;62.70;;;;;;5079937;28;20759;-63
2023/06/12 11:30:20;;;;;;;2.03;1.30;;;21.20;62.70;;;;;;5077791;28;20148;-64
2023/06/12 11:32:47;;;;;;;4.00;1.38;;;21.20;63.10;;;;;;5084000;28;20486;-63
2023/06/12 11:35:13;;;;;;;2.50;1.10;;;21.20;63.10;;;;;;5080241;28;20129;-63
2023/06/12 11:37:41;;;;;;;2.17;1.17;;;21.20;63.10;;;;;;5082144;28;20155;-63
2023/06/12 11:40:11;;;;;;;4.20;1.13;;;21.20;63.20;;;;;;5081294;28;20095;-64
2023/06/12 11:42:45;;;;;;;2.08;1.20;;;21.20;62.90;;;;;;5080696;28;20087;-63
2023/06/12 11:45:16;;;;;;;3.97;1.30;;;21.10;63.10;;;;;;5083533;28;20068;-64
2023/06/12 11:47:44;;;;;;;4.28;1.50;;;21.10;63.30;;;;;;5086254;28;20528;-63
2023/06/12 11:50:13;;;;;;;4.30;1.30;;;21.10;63.50;;;;;;5083492;28;20084;-63
2023/06/12 11:52:41;;;;;;;2.90;1.35;;;21.00;63.60;;;;;;5084980;28;20067;-63
2023/06/12 11:55:11;;;;;;;1.15;1.10;;;21.10;63.90;;;;;;5080270;28;20508;-62
2023/06/12 11:57:38;;;;;;;3.30;1.30;;;21.00;63.70;;;;;;5081461;28;20827;-64
2023/06/12 12:00:11;;;;;;;16.40;1.38;;;21.00;63.80;;;;;;5082314;28;20076;-64
2023/06/12 12:02:41;;;;;;;3.88;1.30;;;21.00;64.00;;;;;;5078828;28;20540;-64
2023/06/12 12:05:11;;;;;;;2.83;1.40;;;21.00;64.10;;;;;;5083430;28;20537;-64
2023/06/12 12:07:39;;;;;;;1.63;1.00;;;20.90;64.40;;;;;;5083681;28;20956;-63
2023/06/12 12:10:09;;;;;;;1.80;1.10;;;20.90;64.30;;;;;;5077768;28;20133;-62
2023/06/12 12:12:43;;;;;;;2.75;1.00;;;20.90;64.30;;;;;;5079178;28;20080;-63
2023/06/12 12:15:13;;;;;;;2.03;1.08;;;21.00;64.60;;;;;;5083345;28;20082;-63
2023/06/12 12:17:40;;;;;;;2.75;1.08;;;20.90;64.80;;;;;;5081795;28;20084;-64
2023/06/12 12:20:14;;;;;;;2.17;1.13;;;20.90;64.80;;;;;;5081022;28;20088;-63
2023/06/12 12:22:41;;;;;;;2.65;1.33;;;20.90;64.80;;;;;;5079204;28;20516;-63
2023/06/12 12:25:10;;;;;;;1.90;1.30;;;20.90;65.80;;;;;;5080256;28;20158;-63
2023/06/12 12:27:38;;;;;;;3.67;1.42;;;20.90;65.30;;;;;;5082782;28;20133;-63
2023/06/12 12:30:05;;;;;;;3.25;1.00;;;20.90;65.60;;;;;;5080979;28;20068;-63
2023/06/12 12:32:32;;;;;;;2.75;1.33;;;20.80;65.50;;;;;;5085843;28;20075;-63
2023/06/12 12:34:58;;;;;;;2.33;1.67;;;20.70;65.70;;;;;;5076124;28;20445;-63
2023/06/12 12:37:25;;;;;;;3.85;1.48;;;20.70;66.20;;;;;;5083566;28;20068;-64
2023/06/12 12:39:51;;;;;;;5.10;1.20;;;20.70;66.50;;;;;;5083286;28;20133;-61
2023/06/12 12:42:18;;;;;;;7.25;1.27;;;20.70;67.10;;;;;;5078299;28;20063;-64
2023/06/12 12:44:45;;;;;;;4.35;1.30;;;20.70;67.60;;;;;;5080415;28;20068;-63
2023/06/12 12:47:11;;;;;;;3.85;1.23;;;20.70;67.60;;;;;;5079682;28;20435;-63